createdAt,value
2023-01-27T00:01:50.028Z,20.90
2023-01-27T00:04:17.188Z,20.92
2023-01-27T00:06:44.274Z,20.95
2023-01-27T00:09:12.382Z,20.97
2023-01-27T00:11:59.519Z,20.98
2023-01-27T00:14:26.715Z,21.00
2023-01-27T00:16:53.971Z,21.02
2023-01-27T00:19:21.094Z,21.01
2023-01-27T00:21:57.643Z,21.02
2023-01-27T00:24:34.726Z,21.04
2023-01-27T00:27:02.127Z,21.04
2023-01-27T00:29:29.176Z,21.04
2023-01-27T00:32:05.806Z,21.06
2023-01-27T00:34:33.059Z,21.05
2023-01-27T00:37:00.114Z,21.06
2023-01-27T00:39:27.262Z,21.04
2023-01-27T00:41:55.813Z,21.04
2023-01-27T00:44:24.273Z,21.04
2023-01-27T00:46:51.544Z,21.03
2023-01-27T00:49:18.708Z,21.01
2023-01-27T00:51:45.752Z,21.01
2023-01-27T00:54:12.715Z,20.99
2023-01-27T00:56:39.798Z,20.97
2023-01-27T00:59:06.967Z,20.96
2023-01-27T01:01:35.082Z,20.96
2023-01-27T01:04:02.226Z,20.91
2023-01-27T01:06:29.534Z,20.89
2023-01-27T01:08:57.264Z,20.89
2023-01-27T01:11:25.100Z,20.87
2023-01-27T01:13:54.336Z,20.85
2023-01-27T01:16:23.673Z,20.81
2023-01-27T01:18:50.986Z,20.77
2023-01-27T01:21:18.307Z,20.74
2023-01-27T01:23:46.030Z,20.71
2023-01-27T01:26:13.465Z,20.65
2023-01-27T01:28:40.561Z,20.64
2023-01-27T01:31:09.764Z,20.61
2023-01-27T01:33:37.386Z,20.56
2023-01-27T01:36:05.796Z,20.52
2023-01-27T01:38:33.360Z,20.50
2023-01-27T01:41:00.387Z,20.48
2023-01-27T01:43:28.186Z,20.47
2023-01-27T01:45:56.941Z,20.47
2023-01-27T01:48:24.443Z,20.46
2023-01-27T01:50:57.192Z,20.44
2023-01-27T01:53:29.676Z,20.42
2023-01-27T01:55:59.109Z,20.41
2023-01-27T01:58:28.491Z,20.41
2023-01-27T02:00:56.693Z,20.43
2023-01-27T02:03:26.336Z,20.41
2023-01-27T02:05:55.127Z,20.38
2023-01-27T02:08:26.007Z,20.34
2023-01-27T02:10:54.804Z,20.30
2023-01-27T02:13:22.607Z,20.27
2023-01-27T02:15:54.253Z,20.23
2023-01-27T02:18:21.496Z,20.23
2023-01-27T02:20:50.818Z,20.22
2023-01-27T02:23:18.083Z,20.19
2023-01-27T02:25:45.477Z,20.18
2023-01-27T02:28:12.652Z,20.12
2023-01-27T02:30:39.702Z,20.11
2023-01-27T02:33:11.202Z,20.08
2023-01-27T02:35:41.897Z,20.05
2023-01-27T02:38:09.726Z,20.03
2023-01-27T02:40:37.307Z,19.98
2023-01-27T02:43:05.371Z,19.97
2023-01-27T02:45:32.329Z,19.92
2023-01-27T02:47:59.322Z,19.90
2023-01-27T02:50:26.513Z,19.87
2023-01-27T02:52:53.596Z,19.86
2023-01-27T02:55:20.615Z,19.83
2023-01-27T02:57:48.635Z,19.83
2023-01-27T03:00:15.829Z,19.77
2023-01-27T03:02:42.939Z,19.77
2023-01-27T03:05:09.936Z,19.74
2023-01-27T03:07:36.903Z,19.70
2023-01-27T03:10:04.549Z,19.66
2023-01-27T03:12:31.836Z,19.64
2023-01-27T03:15:10.128Z,19.63
2023-01-27T03:17:47.901Z,19.60
2023-01-27T03:20:15.167Z,19.58
2023-01-27T03:22:42.282Z,19.57
2023-01-27T03:25:09.543Z,19.53
2023-01-27T03:27:36.961Z,19.52
2023-01-27T03:30:04.425Z,19.50
2023-01-27T03:32:31.977Z,19.51
2023-01-27T03:34:59.231Z,19.47
2023-01-27T03:37:36.948Z,19.46
2023-01-27T03:40:14.220Z,19.44
2023-01-27T03:42:51.067Z,19.44
2023-01-27T03:45:27.521Z,19.43
2023-01-27T03:47:54.658Z,19.37
2023-01-27T03:50:38.120Z,19.37
2023-01-27T03:53:05.953Z,19.37
2023-01-27T03:55:34.023Z,19.38
2023-01-27T03:58:10.901Z,19.36
2023-01-27T04:00:38.528Z,19.32
2023-01-27T04:03:14.668Z,19.33
2023-01-27T04:05:51.727Z,19.33
2023-01-27T04:08:18.637Z,19.28
2023-01-27T04:11:05.550Z,19.26
2023-01-27T04:13:32.652Z,19.26
2023-01-27T04:15:59.882Z,19.26
2023-01-27T04:18:26.858Z,19.25
2023-01-27T04:20:53.997Z,19.21
2023-01-27T04:23:21.405Z,19.20
2023-01-27T04:25:50.270Z,19.18
2023-01-27T04:28:25.665Z,19.15
2023-01-27T04:31:00.917Z,19.15
2023-01-27T04:33:28.046Z,19.10
2023-01-27T04:35:55.008Z,19.13
2023-01-27T04:38:22.556Z,19.09
2023-01-27T04:40:49.592Z,19.07
2023-01-27T04:43:16.494Z,19.05
2023-01-27T04:45:43.503Z,19.03
2023-01-27T04:48:10.606Z,19.02
2023-01-27T04:50:37.691Z,19.00
2023-01-27T04:53:04.711Z,18.97
2023-01-27T04:55:31.747Z,18.95
2023-01-27T04:57:58.782Z,18.94
2023-01-27T05:00:25.897Z,18.91
2023-01-27T05:02:52.624Z,18.89
2023-01-27T05:05:19.761Z,18.89
2023-01-27T05:07:46.578Z,18.87
2023-01-27T05:10:13.787Z,18.84
2023-01-27T05:12:40.687Z,18.83
2023-01-27T05:15:08.114Z,18.80
2023-01-27T05:17:35.027Z,18.80
2023-01-27T05:20:02.299Z,18.79
2023-01-27T05:22:29.076Z,18.79
2023-01-27T05:24:55.843Z,18.85
2023-01-27T05:27:22.677Z,18.87
2023-01-27T05:29:49.374Z,18.90
2023-01-27T05:32:16.127Z,18.92
2023-01-27T05:34:42.823Z,18.95
2023-01-27T05:37:09.738Z,18.97
2023-01-27T05:39:36.604Z,19.02
2023-01-27T05:42:03.853Z,19.06
2023-01-27T05:44:30.671Z,19.09
2023-01-27T05:46:57.440Z,19.14
2023-01-27T05:49:24.226Z,19.18
2023-01-27T05:51:50.951Z,19.22
2023-01-27T05:54:17.711Z,19.27
2023-01-27T05:56:44.901Z,19.32
2023-01-27T05:59:11.736Z,19.37
2023-01-27T06:01:39.183Z,19.42
2023-01-27T06:04:06.277Z,19.47
2023-01-27T06:06:33.893Z,19.51
2023-01-27T06:09:00.999Z,19.57
2023-01-27T06:11:28.102Z,19.62
2023-01-27T06:13:55.326Z,19.67
2023-01-27T06:16:22.599Z,19.72
2023-01-27T06:18:49.491Z,19.77
2023-01-27T06:21:20.761Z,19.81
2023-01-27T06:23:48.274Z,19.87
2023-01-27T06:26:16.650Z,19.91
2023-01-27T06:28:43.815Z,19.95
2023-01-27T06:31:12.731Z,20.01
2023-01-27T06:33:40.053Z,20.06
2023-01-27T06:36:08.722Z,20.11
2023-01-27T06:38:35.668Z,20.15
2023-01-27T06:41:02.699Z,20.20
2023-01-27T06:43:29.999Z,20.25
2023-01-27T06:45:58.258Z,20.28
2023-01-27T06:48:25.648Z,20.34
2023-01-27T06:50:54.291Z,20.37
2023-01-27T06:53:21.205Z,20.42
2023-01-27T06:55:48.946Z,20.46
2023-01-27T06:58:16.119Z,20.50
2023-01-27T07:00:43.226Z,20.54
2023-01-27T07:03:11.872Z,20.59
2023-01-27T07:05:39.657Z,20.62
2023-01-27T07:08:06.444Z,20.67
2023-01-27T07:10:33.345Z,20.70
2023-01-27T07:13:09.852Z,20.72
2023-01-27T07:15:36.950Z,20.76
2023-01-27T07:18:04.319Z,20.79
2023-01-27T07:20:31.864Z,20.85
2023-01-27T07:22:59.810Z,20.87
2023-01-27T07:25:27.075Z,20.90
2023-01-27T07:27:54.191Z,20.90
2023-01-27T07:30:20.988Z,20.91
2023-01-27T07:32:48.037Z,20.95
2023-01-27T07:35:16.096Z,20.96
2023-01-27T07:37:42.876Z,20.96
2023-01-27T07:40:10.660Z,20.98
2023-01-27T07:42:37.542Z,21.00
2023-01-27T07:45:04.676Z,21.00
2023-01-27T07:47:31.607Z,21.02
2023-01-27T07:49:58.872Z,21.07
2023-01-27T07:52:25.807Z,20.67
2023-01-27T07:54:52.715Z,20.83
2023-01-27T07:57:19.629Z,20.87
2023-01-27T07:59:46.656Z,20.90
2023-01-27T08:02:13.796Z,20.94
2023-01-27T08:04:52.506Z,20.96
2023-01-27T08:07:20.606Z,20.94
2023-01-27T08:09:47.432Z,20.93
2023-01-27T08:12:14.655Z,20.93
2023-01-27T08:14:41.629Z,20.94
2023-01-27T08:17:08.681Z,20.94
2023-01-27T08:19:35.729Z,20.94
2023-01-27T08:22:02.909Z,20.92
2023-01-27T08:24:30.152Z,20.94
2023-01-27T08:26:57.109Z,20.91
2023-01-27T08:29:24.190Z,20.93
2023-01-27T08:31:51.061Z,20.94
2023-01-27T08:34:17.897Z,20.94
2023-01-27T08:36:44.967Z,20.94
2023-01-27T08:39:12.398Z,20.95
2023-01-27T08:41:39.436Z,20.94
2023-01-27T08:44:07.387Z,20.94
2023-01-27T08:46:34.336Z,20.94
2023-01-27T08:49:01.585Z,20.92
2023-01-27T08:51:29.182Z,20.89
2023-01-27T08:53:56.245Z,20.88
2023-01-27T08:56:23.497Z,20.86
2023-01-27T08:58:52.678Z,20.85
2023-01-27T09:01:20.399Z,20.84
2023-01-27T09:03:47.635Z,20.83
2023-01-27T09:06:14.950Z,20.78
2023-01-27T09:08:42.203Z,20.77
2023-01-27T09:11:10.548Z,20.75
2023-01-27T09:13:37.575Z,20.75
2023-01-27T09:16:04.728Z,20.76
2023-01-27T09:18:31.720Z,20.77
2023-01-27T09:20:58.602Z,20.77
2023-01-27T09:23:25.751Z,20.79
2023-01-27T09:25:52.637Z,20.80
2023-01-27T09:28:19.581Z,20.82
2023-01-27T09:30:46.988Z,20.85
2023-01-27T09:33:18.177Z,20.89
2023-01-27T09:35:47.610Z,20.91
2023-01-27T09:38:17.199Z,20.94
2023-01-27T09:41:01.396Z,20.96
2023-01-27T09:43:37.756Z,20.98
2023-01-27T09:46:15.450Z,21.00
2023-01-27T09:48:51.727Z,21.02
2023-01-27T09:51:20.228Z,21.03
2023-01-27T09:53:56.882Z,21.04
2023-01-27T09:56:23.958Z,21.05
2023-01-27T09:59:00.775Z,21.05
2023-01-27T10:01:34.537Z,21.06
2023-01-27T10:04:02.641Z,21.05
2023-01-27T10:06:29.720Z,21.04
2023-01-27T10:08:57.772Z,21.05
2023-01-27T10:11:25.904Z,21.05
2023-01-27T10:13:54.057Z,21.04
2023-01-27T10:16:28.514Z,21.04
2023-01-27T10:19:04.653Z,21.02
2023-01-27T10:21:41.338Z,21.02
2023-01-27T10:24:08.663Z,21.01
2023-01-27T10:26:36.326Z,21.01
2023-01-27T10:29:09.037Z,21.00
2023-01-27T10:31:45.758Z,21.00
2023-01-27T10:34:19.010Z,21.02
2023-01-27T10:36:53.658Z,21.02
2023-01-27T10:39:36.085Z,21.02
2023-01-27T10:42:18.506Z,21.04
2023-01-27T10:44:53.737Z,21.03
2023-01-27T10:47:35.056Z,21.01
2023-01-27T10:50:07.811Z,20.99
2023-01-27T10:52:34.801Z,20.98
2023-01-27T10:55:06.005Z,20.97
2023-01-27T10:57:37.326Z,20.91
2023-01-27T11:00:49.201Z,20.89
2023-01-27T11:02:59.209Z,20.88
2023-01-27T11:05:30.520Z,20.86
2023-01-27T11:08:00.420Z,20.83
2023-01-27T11:10:31.181Z,20.79
2023-01-27T11:12:59.076Z,20.77
2023-01-27T11:15:28.783Z,20.76
2023-01-27T11:17:59.915Z,20.74
2023-01-27T11:20:35.532Z,20.71
2023-01-27T11:23:05.111Z,20.69
2023-01-27T11:25:41.786Z,20.65
2023-01-27T11:28:17.794Z,20.62
2023-01-27T11:30:53.980Z,20.58
2023-01-27T11:33:26.277Z,20.56
2023-01-27T11:35:54.586Z,20.52
2023-01-27T11:38:22.900Z,20.51
2023-01-27T11:40:52.081Z,20.49
2023-01-27T11:43:20.199Z,20.50
2023-01-27T11:45:48.373Z,20.47
2023-01-27T11:48:17.386Z,20.39
2023-01-27T11:50:45.257Z,20.40
2023-01-27T11:53:15.221Z,20.40
2023-01-27T11:55:44.287Z,20.40
2023-01-27T11:58:19.201Z,20.38
2023-01-27T12:00:48.536Z,20.36
2023-01-27T12:03:21.535Z,20.34
2023-01-27T12:05:52.941Z,20.32
2023-01-27T12:08:29.678Z,20.31
2023-01-27T12:11:04.767Z,20.27
2023-01-27T12:13:31.818Z,20.22
2023-01-27T12:16:02.053Z,20.22
2023-01-27T12:18:32.765Z,20.17
2023-01-27T12:21:00.763Z,20.15
2023-01-27T12:23:30.133Z,20.14
2023-01-27T12:25:59.410Z,20.04
2023-01-27T12:28:35.790Z,20.06
2023-01-27T12:31:06.779Z,20.03
2023-01-27T12:33:34.876Z,19.99
2023-01-27T12:36:05.003Z,19.97
2023-01-27T12:38:36.694Z,19.95
2023-01-27T12:41:05.959Z,19.91
2023-01-27T12:43:49.967Z,19.87
2023-01-27T12:46:27.153Z,19.86
2023-01-27T12:49:00.946Z,19.84
2023-01-27T12:51:41.801Z,19.86
2023-01-27T12:54:16.548Z,19.78
2023-01-27T12:56:43.686Z,19.77
2023-01-27T12:59:14.458Z,19.75
2023-01-27T13:01:42.189Z,19.75
2023-01-27T13:04:12.786Z,19.74
2023-01-27T13:06:43.814Z,19.73
2023-01-27T13:09:24.317Z,19.73
2023-01-27T13:11:51.797Z,19.76
2023-01-27T13:14:19.298Z,19.77
2023-01-27T13:16:54.713Z,19.80
2023-01-27T13:19:26.538Z,19.82
2023-01-27T13:21:55.636Z,19.83
2023-01-27T13:24:32.158Z,19.82
2023-01-27T13:27:01.184Z,19.83
2023-01-27T13:29:32.223Z,19.88
2023-01-27T13:31:59.319Z,19.92
2023-01-27T13:34:35.702Z,19.97
2023-01-27T13:37:02.954Z,20.02
2023-01-27T13:39:39.737Z,20.07
2023-01-27T13:42:19.300Z,20.11
2023-01-27T13:44:49.660Z,20.17
2023-01-27T13:47:21.480Z,20.21
2023-01-27T13:49:50.803Z,20.26
2023-01-27T13:52:18.002Z,20.31
2023-01-27T13:54:44.815Z,20.36
2023-01-27T13:57:26.306Z,20.40
2023-01-27T14:00:02.694Z,20.43
2023-01-27T14:02:38.801Z,20.46
2023-01-27T14:05:07.165Z,20.51
2023-01-27T14:07:41.625Z,20.53
2023-01-27T14:10:15.930Z,20.58
2023-01-27T14:12:52.934Z,20.60
2023-01-27T14:15:30.317Z,20.65
2023-01-27T14:17:58.920Z,20.70
2023-01-27T14:20:31.884Z,20.73
2023-01-27T14:23:00.006Z,20.76
2023-01-27T14:25:36.702Z,20.77
2023-01-27T14:28:10.204Z,20.79
2023-01-27T14:30:42.013Z,20.80
2023-01-27T14:33:17.878Z,20.85
2023-01-27T14:35:49.568Z,20.84
2023-01-27T14:38:22.492Z,20.87
2023-01-27T14:40:56.757Z,20.88
2023-01-27T14:43:24.841Z,20.88
2023-01-27T14:45:56.458Z,20.89
2023-01-27T14:48:30.667Z,20.90
2023-01-27T14:51:04.931Z,20.89
2023-01-27T14:53:35.251Z,20.87
2023-01-27T14:56:07.505Z,20.89
2023-01-27T14:58:34.798Z,20.88
2023-01-27T15:01:09.022Z,20.87
2023-01-27T15:03:46.360Z,20.86
2023-01-27T15:06:17.577Z,20.84
2023-01-27T15:08:44.837Z,20.83
2023-01-27T15:11:22.057Z,20.81
2023-01-27T15:14:00.069Z,20.82
2023-01-27T15:16:27.200Z,20.82
2023-01-27T15:18:55.387Z,20.77
2023-01-27T15:21:31.643Z,20.76
2023-01-27T15:24:07.676Z,20.75
2023-01-27T15:26:36.199Z,20.73
2023-01-27T15:29:03.769Z,20.74
2023-01-27T15:31:31.672Z,20.74
2023-01-27T15:34:07.791Z,20.73
2023-01-27T15:36:35.160Z,20.72
2023-01-27T15:39:09.330Z,20.72
2023-01-27T15:41:37.104Z,20.69
2023-01-27T15:44:06.166Z,20.68
2023-01-27T15:46:35.386Z,20.64
2023-01-27T15:49:05.462Z,20.58
2023-01-27T15:51:35.656Z,20.60
2023-01-27T15:54:03.435Z,20.57
2023-01-27T15:56:39.842Z,20.55
2023-01-27T15:59:08.948Z,20.53
2023-01-27T16:01:36.758Z,20.52
2023-01-27T16:04:06.046Z,20.53
2023-01-27T16:06:33.285Z,20.48
2023-01-27T16:09:01.880Z,20.46
2023-01-27T16:11:29.399Z,20.44
2023-01-27T16:14:05.627Z,20.41
2023-01-27T16:16:33.319Z,20.39
2023-01-27T16:19:03.856Z,20.38
2023-01-27T16:21:39.288Z,20.37
2023-01-27T16:24:12.690Z,20.31
2023-01-27T16:26:45.989Z,20.32
2023-01-27T16:29:13.164Z,20.29
2023-01-27T16:31:42.303Z,20.28
2023-01-27T16:34:18.140Z,20.27
2023-01-27T16:36:45.364Z,20.26
2023-01-27T16:39:21.565Z,20.32
2023-01-27T16:41:57.067Z,20.34
2023-01-27T16:44:28.783Z,20.37
2023-01-27T16:47:05.025Z,20.42
2023-01-27T16:49:41.648Z,20.47
2023-01-27T16:52:16.825Z,20.49
2023-01-27T16:54:45.273Z,20.53
2023-01-27T16:57:21.739Z,20.57
2023-01-27T16:59:50.649Z,20.60
2023-01-27T17:02:21.395Z,20.63
2023-01-27T17:04:52.810Z,20.68
2023-01-27T17:07:19.957Z,20.70
2023-01-27T17:09:51.102Z,20.74
2023-01-27T17:12:28.877Z,20.77
2023-01-27T17:14:56.363Z,20.79
2023-01-27T17:17:24.160Z,20.82
2023-01-27T17:19:52.340Z,20.88
2023-01-27T17:22:23.858Z,20.89
2023-01-27T17:24:53.519Z,20.92
2023-01-27T17:27:20.619Z,20.95
2023-01-27T17:29:49.023Z,20.97
2023-01-27T17:32:23.308Z,21.01
2023-01-27T17:34:53.169Z,21.04
2023-01-27T17:37:21.600Z,21.06
2023-01-27T17:39:52.238Z,21.06
2023-01-27T17:42:20.699Z,21.08
2023-01-27T17:44:48.143Z,21.10
2023-01-27T17:47:16.870Z,21.11
2023-01-27T17:49:44.646Z,21.10
2023-01-27T17:52:16.842Z,21.10
2023-01-27T17:54:44.129Z,21.09
2023-01-27T17:57:21.530Z,21.09
2023-01-27T17:59:57.720Z,21.10
2023-01-27T18:02:27.639Z,21.08
2023-01-27T18:04:55.439Z,21.08
2023-01-27T18:07:22.309Z,21.08
2023-01-27T18:09:53.751Z,21.10
2023-01-27T18:12:29.832Z,21.09
2023-01-27T18:14:56.829Z,21.07
2023-01-27T18:17:24.945Z,21.06
2023-01-27T18:19:53.101Z,21.04
2023-01-27T18:22:20.617Z,21.03
2023-01-27T18:24:52.583Z,21.02
2023-01-27T18:27:23.084Z,21.00
2023-01-27T18:29:53.412Z,21.00
2023-01-27T18:32:24.369Z,21.00
2023-01-27T18:34:53.047Z,20.97
2023-01-27T18:37:27.599Z,20.98
2023-01-27T18:39:55.077Z,21.00
2023-01-27T18:42:23.258Z,21.02
2023-01-27T18:44:50.950Z,21.06
2023-01-27T18:47:19.711Z,21.06
2023-01-27T18:49:51.963Z,21.09
2023-01-27T18:52:18.967Z,21.13
2023-01-27T18:54:45.858Z,21.15
2023-01-27T18:57:12.934Z,21.18
2023-01-27T18:59:39.902Z,21.19
2023-01-27T19:02:14.535Z,21.21
2023-01-27T19:04:42.064Z,21.24
2023-01-27T19:07:16.766Z,21.28
2023-01-27T19:09:44.479Z,21.30
2023-01-27T19:12:11.960Z,21.34
2023-01-27T19:14:39.583Z,21.37
2023-01-27T19:17:12.172Z,21.39
2023-01-27T19:19:39.062Z,21.40
2023-01-27T19:22:06.002Z,21.42
2023-01-27T19:24:33.205Z,21.47
2023-01-27T19:27:00.114Z,21.49
2023-01-27T19:29:27.088Z,21.52
2023-01-27T19:31:54.014Z,21.55
2023-01-27T19:34:21.103Z,21.55
2023-01-27T19:36:48.258Z,21.59
2023-01-27T19:39:18.047Z,21.60
2023-01-27T19:41:46.427Z,21.60
2023-01-27T19:44:13.799Z,21.61
2023-01-27T19:46:41.004Z,21.61
2023-01-27T19:49:11.789Z,21.64
2023-01-27T19:51:38.682Z,21.66
2023-01-27T19:54:05.703Z,21.66
2023-01-27T19:56:33.579Z,21.67
2023-01-27T19:59:00.813Z,21.68
2023-01-27T20:01:27.899Z,21.66
2023-01-27T20:03:55.308Z,21.65
2023-01-27T20:06:24.059Z,21.66
2023-01-27T20:08:55.481Z,21.65
2023-01-27T20:11:23.755Z,21.66
2023-01-27T20:13:50.668Z,21.62
2023-01-27T20:16:17.522Z,21.61
2023-01-27T20:18:44.343Z,21.57
2023-01-27T20:21:12.622Z,21.57
2023-01-27T20:23:39.579Z,21.56
2023-01-27T20:26:08.314Z,21.53
2023-01-27T20:28:35.108Z,21.48
2023-01-27T20:31:01.971Z,21.45
2023-01-27T20:33:28.982Z,21.45
2023-01-27T20:35:56.028Z,21.41
2023-01-27T20:38:23.075Z,21.40
2023-01-27T20:40:49.900Z,21.40
2023-01-27T20:43:26.542Z,21.39
2023-01-27T20:46:05.658Z,21.40
2023-01-27T20:48:33.537Z,21.37
2023-01-27T20:51:02.613Z,21.34
2023-01-27T20:53:33.100Z,21.33
2023-01-27T20:56:00.518Z,21.28
2023-01-27T20:58:27.431Z,21.28
2023-01-27T21:00:54.362Z,21.25
2023-01-27T21:03:22.960Z,21.25
2023-01-27T21:05:49.785Z,21.20
2023-01-27T21:08:16.772Z,21.19
2023-01-27T21:10:43.635Z,21.19
2023-01-27T21:13:10.626Z,21.16
2023-01-27T21:15:37.534Z,21.11
2023-01-27T21:18:04.441Z,21.11
2023-01-27T21:20:31.322Z,21.09
2023-01-27T21:22:58.178Z,21.07
2023-01-27T21:25:24.998Z,21.04
2023-01-27T21:27:51.791Z,21.04
2023-01-27T21:30:18.604Z,21.02
2023-01-27T21:32:45.414Z,20.97
2023-01-27T21:35:12.852Z,20.94
2023-01-27T21:37:40.545Z,20.92
2023-01-27T21:40:07.746Z,20.89
2023-01-27T21:42:44.638Z,20.86
2023-01-27T21:45:16.693Z,20.85
2023-01-27T21:47:43.933Z,20.83
2023-01-27T21:50:12.387Z,20.75
2023-01-27T21:52:42.043Z,20.73
2023-01-27T21:55:10.312Z,20.73
2023-01-27T21:57:37.236Z,20.68
2023-01-27T22:00:06.834Z,20.68
2023-01-27T22:02:33.767Z,20.66
2023-01-27T22:05:00.590Z,20.63
2023-01-27T22:07:28.007Z,20.58
2023-01-27T22:09:55.154Z,20.54
2023-01-27T22:12:23.751Z,20.53
2023-01-27T22:14:50.671Z,20.51
2023-01-27T22:17:19.869Z,20.46
2023-01-27T22:19:46.971Z,20.43
2023-01-27T22:22:14.196Z,20.40
2023-01-27T22:24:41.213Z,20.40
2023-01-27T22:27:08.564Z,20.36
2023-01-27T22:29:35.409Z,20.33
2023-01-27T22:32:02.366Z,20.30
2023-01-27T22:34:29.152Z,20.26
2023-01-27T22:36:56.043Z,20.22
2023-01-27T22:39:23.736Z,20.21
2023-01-27T22:41:50.849Z,20.18
2023-01-27T22:44:18.286Z,20.15
2023-01-27T22:46:45.188Z,20.15
2023-01-27T22:49:12.075Z,20.11
2023-01-27T22:51:39.219Z,20.06
2023-01-27T22:54:06.214Z,20.04
2023-01-27T22:56:33.045Z,20.05
2023-01-27T22:59:00.667Z,20.03
2023-01-27T23:01:27.641Z,20.03
2023-01-27T23:03:56.181Z,19.99
2023-01-27T23:06:23.017Z,19.97
2023-01-27T23:08:49.806Z,19.92
2023-01-27T23:11:16.651Z,19.91
2023-01-27T23:13:43.684Z,19.88
2023-01-27T23:16:11.686Z,19.86
2023-01-27T23:18:38.828Z,19.84
2023-01-27T23:21:06.780Z,19.85
2023-01-27T23:23:37.219Z,19.80
2023-01-27T23:26:06.409Z,19.78
2023-01-27T23:28:33.657Z,19.78
2023-01-27T23:31:00.569Z,19.75
2023-01-27T23:33:30.662Z,19.74
2023-01-27T23:35:57.667Z,19.70
2023-01-27T23:38:32.473Z,19.67
2023-01-27T23:41:01.440Z,19.67
2023-01-27T23:43:31.134Z,19.65
2023-01-27T23:45:57.969Z,19.62
2023-01-27T23:48:24.952Z,19.62
2023-01-27T23:50:52.152Z,19.58
2023-01-27T23:53:18.977Z,19.58
2023-01-27T23:55:54.455Z,19.55
2023-01-27T23:58:21.407Z,19.57
